DateTime CO2 SoilMoisture Light_0x5C Temperature Humidity
2024-08-14 18 1320 2515 2 28.27000046 54
2024-08-14 18 1313 2524 2 28.29000092 53.97000122
2024-08-14 18 1302 2528 2 28.29999924 53.93999863
2024-08-14 18 1290 2517 2 28.30999947 53.88999939
2024-08-14 18 1285 2519 2 28.31999969 53.84000015
2024-08-14 18 1273 2517 2 28.31999969 53.70999908
2024-08-14 18 1233 2517 2 28.31999969 53.56000137
2024-08-14 18 1243 2517 2 28.29999924 53.47000122
2024-08-14 18 1254 2579 2 28.28000069 53.40999985
2024-08-14 18 1256 2523 2 28.28000069 53.33000183
2024-08-14 18 1242 2522 2 28.27000046 53.24000168
2024-08-14 18 1241 2515 2 28.26000023 53.13999939
2024-08-22 09 483 2512 7 29.10000038 60.90999985
2024-08-22 09 502 2506 7 29.12999916 60.72000122
2024-08-22 10 536 2533 7 29.15999985 60.52000046
2024-08-22 10 544 2502 7 29.18000031 60.11000061
2024-08-22 10 574 2505 7 29.20000076 59.95000076
2024-08-22 10 530 2512 123 29.20000076 56.90000153
2024-08-22 10 577 2493 122 29.18000031 57.36999893
2024-08-22 10 604 2526 30 29.17000008 56.74000168
2024-08-22 10 593 2521 30 29.17000008 55.68999863
2024-08-22 10 610 2497 30 29.17000008 54.22000122
2024-08-22 10 654 2512 30 29.17000008 52.90999985
2024-08-22 10 647 2521 30 29.17000008 51.88000107
2024-08-22 10 644 2518 31 29.18000031 51.88999939
2024-08-22 10 617 2521 30 29.19000053 51.88000107
2024-08-22 10 593 2512 30 29.20000076 51.63999939
2024-08-22 10 568 2510 30 29.20999908 51.49000168
2024-08-22 10 566 2528 30 29.21999931 51.29999924
2024-08-22 10 585 2515 33 29.22999954 51.77000046
2024-08-22 10 565 2497 33 29.25 52.11000061
2024-08-22 10 515 2526 126 29.25 51.65000153
2024-08-22 10 574 2512 123 29.17000008 51.09999847
2024-08-22 10 565 2527 27 29.15999985 51.52999878
2024-08-22 10 578 2465 27 29.15999985 51.63000107
2024-08-22 10 555 2518 27 29.18000031 51.45000076
2024-08-22 10 577 2527 27 29.19000053 51.38000107
2024-08-22 10 593 2528 27 29.20999908 50.93000031
2024-08-22 10 583 2577 27 29.22999954 50.81000137
2024-08-22 10 581 2518 27 29.23999977 50.56000137
2024-08-22 10 606 2519 28 29.26000023 50.5
2024-08-22 10 589 2528 27 29.27000046 50.18000031
2024-08-22 10 594 2512 27 29.28000069 50.04000092
2024-08-22 10 607 2517 27 29.29000092 49.88999939
2024-08-22 10 625 2539 7 29.29999924 49.79999924
2024-08-22 10 607 2523 7 29.29999924 49.61000061
2024-08-22 10 614 2518 7 29.30999947 49.54000092
2024-08-22 10 604 2531 7 29.30999947 49.59000015
2024-08-22 10 625 2518 8 29.30999947 49.43999863
2024-08-22 10 614 2512 9 29.30999947 49.22000122
2024-08-22 10 627 2525 8 29.30999947 49.36999893
2024-08-22 10 628 2511 9 29.30999947 49.41999817
2024-08-22 10 620 2475 8 29.29999924 49.31000137
2024-08-22 10 613 2518 10 29.29999924 49.36999893
2024-08-22 10 616 2505 9 29.29000092 49.20000076
2024-08-22 10 626 2523 9 29.28000069 49.08000183
2024-08-22 10 632 2518 7 29.27000046 49.18000031
2024-08-22 10 627 2522 9 29.26000023 49.22000122
2024-08-22 10 615 2518 8 29.26000023 49.49000168
2024-08-22 10 654 2515 7 29.25 49.59999847
2024-08-22 10 644 2520 8 29.25 49.84999847
2024-08-22 10 650 2528 7 29.23999977 50.04999924
2024-08-22 10 680 2516 8 29.22999954 50.11999893
2024-08-22 10 659 2517 7 29.22999954 50.02999878
2024-08-22 10 679 2514 7 29.21999931 50.02000046
2024-08-22 10 670 2518 7 29.21999931 50.04999924
2024-08-22 10 670 2515 7 29.21999931 50.15999985
2024-08-22 10 657 2526 6 29.21999931 50.11000061
2024-08-22 10 665 2514 6 29.21999931 50.11000061
2024-08-22 10 687 2519 6 29.20999908 49.97000122
2024-08-22 10 696 2507 6 29.20999908 49.81999969
2024-08-22 10 681 2523 6 29.20000076 49.81999969
2024-08-22 10 699 2523 6 29.20000076 50.11000061
2024-08-22 10 687 2512 6 29.19000053 50.40000153
2024-08-22 11 693 2525 7 29.19000053 50.56000137
2024-08-22 11 685 2518 6 29.18000031 50.77999878
2024-08-22 11 677 2496 7 29.18000031 50.90999985
2024-08-22 11 688 2516 6 29.18000031 50.88000107
2024-08-22 11 688 2503 99 29.14999962 50.27000046
2024-08-22 11 676 2485 18 29.12000084 50.68999863
2024-08-22 11 688 2525 19 29.10000038 50.68999863
2024-08-22 11 671 2516 19 29.10000038 50.70000076
2024-08-22 11 676 2523 20 29.10000038 50.74000168
2024-08-22 11 703 2496 20 29.10000038 50.56000137
2024-08-22 11 703 2511 20 29.11000061 50.47999954
2024-08-22 11 676 2513 20 29.11000061 50.31000137
2024-08-22 11 705 2499 20 29.11000061 50.31000137
2024-08-22 11 705 2511 20 29.11000061 50.33000183
2024-08-22 11 695 2515 20 29.11000061 50.24000168
2024-08-22 11 702 2514 20 29.11000061 50.02000046
2024-08-22 11 711 2519 20 29.11000061 49.84000015
2024-08-22 11 702 2509 20 29.12000084 49.74000168
2024-08-22 11 706 2513 100 29.11000061 49.61000061
2024-08-22 11 721 2517 100 29.06999969 49.77000046
2024-08-22 11 719 2531 7 29.04000092 49.88000107
2024-08-22 11 734 2525 7 29.02000046 49.72000122
2024-08-22 11 813 2514 100 28.98999977 49.27000046
2024-08-22 11 743 2507 100 28.93000031 49.27999878
2024-08-22 11 748 2512 98 28.86000061 49.09999847
2024-08-22 11 755 2515 7 28.79000092 49.25
2024-08-22 11 756 2512 6 28.76000023 49.58000183
2024-08-22 11 756 2521 7 28.73999977 49.81000137
2024-08-22 11 773 2519 7 28.72999954 49.99000168
2024-08-22 11 741 2515 7 28.72999954 50.18000031
2024-08-22 11 768 2511 7 28.72999954 50.16999817
2024-08-22 11 751 2516 7 28.73999977 49.95000076
2024-08-22 11 773 2499 7 28.75 50.16999817
2024-08-22 11 750 2518 7 28.76000023 50.34999847
2024-08-22 11 747 2511 7 28.77000046 50.58000183
2024-08-22 11 769 2512 7 28.77000046 50.45000076
2024-08-22 11 747 2528 7 28.78000069 50.36000061
2024-08-22 11 766 2531 7 28.78000069 50.27000046
2024-08-22 11 744 2512 7 28.78000069 50.38000107
2024-08-22 11 754 2527 7 28.79000092 50.22999954
2024-08-22 11 748 2527 7 28.79999924 50.18000031
2024-08-22 11 753 2514 5 28.79999924 50.15000153
2024-08-22 11 775 2528 7 28.80999947 50
2024-08-22 11 748 2521 7 28.81999969 50.06999969
2024-08-22 11 763 2505 8 28.82999992 50.11999893
2024-08-22 11 727 2527 8 28.84000015 50.31999969
2024-08-22 11 745 2513 8 28.84000015 50.45999908
2024-08-22 11 726 2515 8 28.85000038 50.58000183
2024-08-22 11 731 2530 8 28.86000061 50.56999969
2024-08-22 11 735 2511 8 28.86000061 50.40999985
2024-08-22 11 736 2512 8 28.87000084 50.25999832
2024-08-22 11 708 2533 7 28.87999916 50.02999878
2024-08-22 11 749 2514 7 28.87999916 49.95999908
2024-08-22 11 751 2523 8 28.88999939 49.63999939
2024-08-22 11 728 2517 8 28.88999939 49.75999832
2024-08-22 11 713 2523 8 28.89999962 49.83000183
2024-08-22 11 740 2523 7 28.89999962 49.54999924
2024-08-22 11 735 2527 8 28.90999985 49.59999847
2024-08-22 11 730 2506 8 28.90999985 49.59000015
2024-08-22 11 741 2525 7 28.92000008 49.50999832
2024-08-22 12 732 2521 8 28.93000031 49.43999863
2024-08-22 12 742 2512 8 28.93000031 49.36000061
2024-08-22 12 728 2532 8 28.94000053 49.34000015
2024-08-22 12 725 2512 8 28.94000053 49.38999939
2024-08-22 12 718 2516 8 28.95000076 49.43000031
2024-08-22 12 622 2527 9 28.93000031 50.54999924
2024-08-22 12 652 2515 5 28.92000008 50.47000122
2024-08-22 12 662 2531 5 28.90999985 50.15999985
2024-08-22 12 651 2509 5 28.90999985 50.20000076
2024-08-22 12 655 2528 9 28.89999962 50.15999985
2024-08-22 12 617 2527 9 28.89999962 50.06999969
2024-08-22 12 637 2526 9 28.89999962 50.18000031
2024-08-22 12 635 2523 9 28.89999962 50.22999954
2024-08-22 12 638 2527 8 28.89999962 50.11999893
2024-08-22 12 635 2514 8 28.89999962 50.04999924
2024-08-22 12 657 2521 9 28.88999939 49.61000061
2024-08-22 12 644 2516 8 28.88999939 49.59999847
2024-08-22 12 634 2513 8 28.88999939 49.70999908
2024-08-22 12 626 2526 7 28.88999939 49.79000092
2024-08-22 12 635 2522 5 28.87999916 49.86000061
2024-08-22 12 650 2509 9 28.87000084 49.72000122
2024-08-22 12 615 2518 10 28.86000061 49.93000031
2024-08-22 12 656 2523 10 28.86000061 49.77000046
2024-08-22 12 657 2518 10 28.85000038 49.70999908
2024-08-22 12 632 2512 10 28.84000015 49.90000153
2024-08-22 12 640 2517 7 28.82999992 50.18999863
2024-08-22 12 616 2528 5 28.80999947 50.25
2024-08-22 12 631 2525 7 28.79999924 50.16999817
2024-08-23 11 744 2513 8 26.86000061 59.31999969
2024-08-23 11 773 2513 8 26.87999916 58.79999924
2024-09-10 14 1512 2512 105 26.88999939 55.15999985
2024-08-14 18: 1320 2515 2 28.270000458 54
2024-08-14 18: 1313 2524 2 28.290000916 53.970001221
2024-08-14 18: 1302 2528 2 28.299999237 53.939998627
2024-08-14 18: 1290 2517 2 28.309999466 53.88999939
2024-08-14 18: 1285 2519 2 28.319999695 53.840000153
2024-08-14 18: 1273 2517 2 28.319999695 53.709999084
2024-08-14 18: 1233 2517 2 28.319999695 53.560001373
2024-08-14 18: 1243 2517 2 28.299999237 53.470001221
2024-08-14 18: 1254 2579 2 28.280000687 53.409999847
2024-08-14 18: 1256 2523 2 28.280000687 53.330001831
2024-08-14 18: 1242 2522 2 28.270000458 53.240001678
2024-08-14 18: 1241 2515 2 28.260000229 53.13999939
2024-08-22 09: 483 2512 7 29.100000381 60.909999847
2024-08-22 09: 502 2506 7 29.129999161 60.720001221
2024-08-22 10: 536 2533 7 29.159999847 60.520000458
2024-08-22 10: 544 2502 7 29.180000305 60.11000061
2024-08-22 10: 574 2505 7 29.200000763 59.950000763
2024-08-22 10: 530 2512 123 29.200000763 56.900001526
2024-08-22 10: 577 2493 122 29.180000305 57.369998932
2024-08-22 10: 604 2526 30 29.170000076 56.740001678
2024-08-22 10: 593 2521 30 29.170000076 55.689998627
2024-08-22 10: 610 2497 30 29.170000076 54.220001221
2024-08-22 10: 654 2512 30 29.170000076 52.909999847
2024-08-22 10: 647 2521 30 29.170000076 51.880001068
2024-08-22 10: 644 2518 31 29.180000305 51.88999939
2024-08-22 10: 617 2521 30 29.190000534 51.880001068
2024-08-22 10: 593 2512 30 29.200000763 51.63999939
2024-08-22 10: 568 2510 30 29.209999084 51.490001678
2024-08-22 10: 566 2528 30 29.219999313 51.299999237
2024-08-22 10: 585 2515 33 29.229999542 51.770000458
2024-08-22 10: 565 2497 33 29.25 52.11000061
2024-08-22 10: 515 2526 126 29.25 51.650001526
2024-08-22 10: 574 2512 123 29.170000076 51.099998474
2024-08-22 10: 565 2527 27 29.159999847 51.529998779
2024-08-22 10: 578 2465 27 29.159999847 51.630001068
2024-08-22 10: 555 2518 27 29.180000305 51.450000763
2024-08-22 10: 577 2527 27 29.190000534 51.380001068
2024-08-22 10: 593 2528 27 29.209999084 50.930000305
2024-08-22 10: 583 2577 27 29.229999542 50.810001373
2024-08-22 10: 581 2518 27 29.239999771 50.560001373
2024-08-22 10: 606 2519 28 29.260000229 50.5
2024-08-22 10: 589 2528 27 29.270000458 50.180000305
2024-08-22 10: 594 2512 27 29.280000687 50.040000916
2024-08-22 10: 607 2517 27 29.290000916 49.88999939
2024-08-22 10: 625 2539 7 29.299999237 49.799999237
2024-08-22 10: 607 2523 7 29.299999237 49.61000061
2024-08-22 10: 614 2518 7 29.309999466 49.540000916
2024-08-22 10: 604 2531 7 29.309999466 49.590000153
2024-08-22 10: 625 2518 8 29.309999466 49.439998627
2024-08-22 10: 614 2512 9 29.309999466 49.220001221
2024-08-22 10: 627 2525 8 29.309999466 49.369998932
2024-08-22 10: 628 2511 9 29.309999466 49.419998169
2024-08-22 10: 620 2475 8 29.299999237 49.310001373
2024-08-22 10: 613 2518 10 29.299999237 49.369998932
2024-08-22 10: 616 2505 9 29.290000916 49.200000763
2024-08-22 10: 626 2523 9 29.280000687 49.080001831
2024-08-22 10: 632 2518 7 29.270000458 49.180000305
2024-08-22 10: 627 2522 9 29.260000229 49.220001221
2024-08-22 10: 615 2518 8 29.260000229 49.490001678
2024-08-22 10: 654 2515 7 29.25 49.599998474
2024-08-22 10: 644 2520 8 29.25 49.849998474
2024-08-22 10: 650 2528 7 29.239999771 50.049999237
2024-08-22 10: 680 2516 8 29.229999542 50.119998932
2024-08-22 10: 659 2517 7 29.229999542 50.029998779
2024-08-22 10: 679 2514 7 29.219999313 50.020000458
2024-08-22 10: 670 2518 7 29.219999313 50.049999237
2024-08-22 10: 670 2515 7 29.219999313 50.159999847
2024-08-22 10: 657 2526 6 29.219999313 50.11000061
2024-08-22 10: 665 2514 6 29.219999313 50.11000061
2024-08-22 10: 687 2519 6 29.209999084 49.970001221
2024-08-22 10: 696 2507 6 29.209999084 49.819999695
2024-08-22 10: 681 2523 6 29.200000763 49.819999695
2024-08-22 10: 699 2523 6 29.200000763 50.11000061
2024-08-22 10: 687 2512 6 29.190000534 50.400001526
2024-08-22 11: 693 2525 7 29.190000534 50.560001373
2024-08-22 11: 685 2518 6 29.180000305 50.779998779
2024-08-22 11: 677 2496 7 29.180000305 50.909999847
2024-08-22 11: 688 2516 6 29.180000305 50.880001068
2024-08-22 11: 688 2503 99 29.149999619 50.270000458
2024-08-22 11: 676 2485 18 29.120000839 50.689998627
2024-08-22 11: 688 2525 19 29.100000381 50.689998627
2024-08-22 11: 671 2516 19 29.100000381 50.700000763
2024-08-22 11: 676 2523 20 29.100000381 50.740001678
2024-08-22 11: 703 2496 20 29.100000381 50.560001373
2024-08-22 11: 703 2511 20 29.11000061 50.479999542
2024-08-22 11: 676 2513 20 29.11000061 50.310001373
2024-08-22 11: 705 2499 20 29.11000061 50.310001373
2024-08-22 11: 705 2511 20 29.11000061 50.330001831
2024-08-22 11: 695 2515 20 29.11000061 50.240001678
2024-08-22 11: 702 2514 20 29.11000061 50.020000458
2024-08-22 11: 711 2519 20 29.11000061 49.840000153
2024-08-22 11: 702 2509 20 29.120000839 49.740001678
2024-08-22 11: 706 2513 100 29.11000061 49.61000061
2024-08-22 11: 721 2517 100 29.069999695 49.770000458
2024-08-22 11: 719 2531 7 29.040000916 49.880001068
2024-08-22 11: 734 2525 7 29.020000458 49.720001221
2024-08-22 11: 813 2514 100 28.989999771 49.270000458
2024-08-22 11: 743 2507 100 28.930000305 49.279998779
2024-08-22 11: 748 2512 98 28.86000061 49.099998474
2024-08-22 11: 755 2515 7 28.790000916 49.25
2024-08-22 11: 756 2512 6 28.760000229 49.580001831
2024-08-22 11: 756 2521 7 28.739999771 49.810001373
2024-08-22 11: 773 2519 7 28.729999542 49.990001678
2024-08-22 11: 741 2515 7 28.729999542 50.180000305
2024-08-22 11: 768 2511 7 28.729999542 50.169998169
2024-08-22 11: 751 2516 7 28.739999771 49.950000763
2024-08-22 11: 773 2499 7 28.75 50.169998169
2024-08-22 11: 750 2518 7 28.760000229 50.349998474
2024-08-22 11: 747 2511 7 28.770000458 50.580001831
2024-08-22 11: 769 2512 7 28.770000458 50.450000763
2024-08-22 11: 747 2528 7 28.780000687 50.36000061
2024-08-22 11: 766 2531 7 28.780000687 50.270000458
2024-08-22 11: 744 2512 7 28.780000687 50.380001068
2024-08-22 11: 754 2527 7 28.790000916 50.229999542
2024-08-22 11: 748 2527 7 28.799999237 50.180000305
2024-08-22 11: 753 2514 5 28.799999237 50.150001526
2024-08-22 11: 775 2528 7 28.809999466 50
2024-08-22 11: 748 2521 7 28.819999695 50.069999695
2024-08-22 11: 763 2505 8 28.829999924 50.119998932
2024-08-22 11: 727 2527 8 28.840000153 50.319999695
2024-08-22 11: 745 2513 8 28.840000153 50.459999084
2024-08-22 11: 726 2515 8 28.850000381 50.580001831
2024-08-22 11: 731 2530 8 28.86000061 50.569999695
2024-08-22 11: 735 2511 8 28.86000061 50.409999847
2024-08-22 11: 736 2512 8 28.870000839 50.259998322
2024-08-22 11: 708 2533 7 28.879999161 50.029998779
2024-08-22 11: 749 2514 7 28.879999161 49.959999084
2024-08-22 11: 751 2523 8 28.88999939 49.63999939
2024-08-22 11: 728 2517 8 28.88999939 49.759998322
2024-08-22 11: 713 2523 8 28.899999619 49.830001831
2024-08-22 11: 740 2523 7 28.899999619 49.549999237
2024-08-22 11: 735 2527 8 28.909999847 49.599998474
2024-08-22 11: 730 2506 8 28.909999847 49.590000153
2024-08-22 11: 741 2525 7 28.920000076 49.509998322
2024-08-22 12: 732 2521 8 28.930000305 49.439998627
2024-08-22 12: 742 2512 8 28.930000305 49.36000061
2024-08-22 12: 728 2532 8 28.940000534 49.340000153
2024-08-22 12: 725 2512 8 28.940000534 49.38999939
2024-08-22 12: 718 2516 8 28.950000763 49.430000305
2024-08-22 12: 622 2527 9 28.930000305 50.549999237
2024-08-22 12: 652 2515 5 28.920000076 50.470001221
2024-08-22 12: 662 2531 5 28.909999847 50.159999847
2024-08-22 12: 651 2509 5 28.909999847 50.200000763
2024-08-22 12: 655 2528 9 28.899999619 50.159999847
2024-08-22 12: 617 2527 9 28.899999619 50.069999695
2024-08-22 12: 637 2526 9 28.899999619 50.180000305
2024-08-22 12: 635 2523 9 28.899999619 50.229999542
2024-08-22 12: 638 2527 8 28.899999619 50.119998932
2024-08-22 12: 635 2514 8 28.899999619 50.049999237
2024-08-22 12: 657 2521 9 28.88999939 49.61000061
2024-08-22 12: 644 2516 8 28.88999939 49.599998474
2024-08-22 12: 634 2513 8 28.88999939 49.709999084
2024-08-22 12: 626 2526 7 28.88999939 49.790000916
2024-08-22 12: 635 2522 5 28.879999161 49.86000061
2024-08-22 12: 650 2509 9 28.870000839 49.720001221
2024-08-22 12: 615 2518 10 28.86000061 49.930000305
2024-08-22 12: 656 2523 10 28.86000061 49.770000458
2024-08-22 12: 657 2518 10 28.850000381 49.709999084
2024-08-22 12: 632 2512 10 28.840000153 49.900001526
2024-08-22 12: 640 2517 7 28.829999924 50.189998627
2024-08-22 12: 616 2528 5 28.809999466 50.25
2024-08-22 12: 631 2525 7 28.799999237 50.169998169
2024-08-23 11: 744 2513 8 26.86000061 59.319999695
2024-08-23 11: 773 2513 8 26.879999161 58.799999237
2024-09-10 14: 1512 2512 105 26.88999939 55.159999847
2024-08-14 18: 1320 2515 2 28.270000458 54
2024-08-14 18: 1313 2524 2 28.290000916 53.970001221
2024-08-14 18: 1302 2528 2 28.299999237 53.939998627
2024-08-14 18: 1290 2517 2 28.309999466 53.88999939
2024-08-14 18: 1285 2519 2 28.319999695 53.840000153
2024-08-14 18: 1273 2517 2 28.319999695 53.709999084
2024-08-14 18: 1233 2517 2 28.319999695 53.560001373
2024-08-14 18: 1243 2517 2 28.299999237 53.470001221
2024-08-14 18: 1254 2579 2 28.280000687 53.409999847
2024-08-14 18: 1256 2523 2 28.280000687 53.330001831
2024-08-14 18: 1242 2522 2 28.270000458 53.240001678
2024-08-14 18: 1241 2515 2 28.260000229 53.13999939
2024-08-22 09: 483 2512 7 29.100000381 60.909999847
2024-08-22 09: 502 2506 7 29.129999161 60.720001221
2024-08-22 10: 536 2533 7 29.159999847 60.520000458
2024-08-22 10: 544 2502 7 29.180000305 60.11000061
2024-08-22 10: 574 2505 7 29.200000763 59.950000763
2024-08-22 10: 530 2512 123 29.200000763 56.900001526
2024-08-22 10: 577 2493 122 29.180000305 57.369998932
2024-08-22 10: 604 2526 30 29.170000076 56.740001678
2024-08-22 10: 593 2521 30 29.170000076 55.689998627
2024-08-22 10: 610 2497 30 29.170000076 54.220001221
2024-08-22 10: 654 2512 30 29.170000076 52.909999847
2024-08-22 10: 647 2521 30 29.170000076 51.880001068
2024-08-22 10: 644 2518 31 29.180000305 51.88999939
2024-08-22 10: 617 2521 30 29.190000534 51.880001068
2024-08-22 10: 593 2512 30 29.200000763 51.63999939
2024-08-22 10: 568 2510 30 29.209999084 51.490001678
2024-08-22 10: 566 2528 30 29.219999313 51.299999237
2024-08-22 10: 585 2515 33 29.229999542 51.770000458
2024-08-22 10: 565 2497 33 29.25 52.11000061
2024-08-22 10: 515 2526 126 29.25 51.650001526
2024-08-22 10: 574 2512 123 29.170000076 51.099998474
2024-08-22 10: 565 2527 27 29.159999847 51.529998779
2024-08-22 10: 578 2465 27 29.159999847 51.630001068
2024-08-22 10: 555 2518 27 29.180000305 51.450000763
2024-08-22 10: 577 2527 27 29.190000534 51.380001068
2024-08-22 10: 593 2528 27 29.209999084 50.930000305
2024-08-22 10: 583 2577 27 29.229999542 50.810001373
2024-08-22 10: 581 2518 27 29.239999771 50.560001373
2024-08-22 10: 606 2519 28 29.260000229 50.5
2024-08-22 10: 589 2528 27 29.270000458 50.180000305
2024-08-22 10: 594 2512 27 29.280000687 50.040000916
2024-08-22 10: 607 2517 27 29.290000916 49.88999939
2024-08-22 10: 625 2539 7 29.299999237 49.799999237
2024-08-22 10: 607 2523 7 29.299999237 49.61000061
2024-08-22 10: 614 2518 7 29.309999466 49.540000916
2024-08-22 10: 604 2531 7 29.309999466 49.590000153
2024-08-22 10: 625 2518 8 29.309999466 49.439998627
2024-08-22 10: 614 2512 9 29.309999466 49.220001221
2024-08-22 10: 627 2525 8 29.309999466 49.369998932
2024-08-22 10: 628 2511 9 29.309999466 49.419998169
2024-08-22 10: 620 2475 8 29.299999237 49.310001373
2024-08-22 10: 613 2518 10 29.299999237 49.369998932
2024-08-22 10: 616 2505 9 29.290000916 49.200000763
2024-08-22 10: 626 2523 9 29.280000687 49.080001831
2024-08-22 10: 632 2518 7 29.270000458 49.180000305
2024-08-22 10: 627 2522 9 29.260000229 49.220001221
2024-08-22 10: 615 2518 8 29.260000229 49.490001678
2024-08-22 10: 654 2515 7 29.25 49.599998474
2024-08-22 10: 644 2520 8 29.25 49.849998474
2024-08-22 10: 650 2528 7 29.239999771 50.049999237
2024-08-22 10: 680 2516 8 29.229999542 50.119998932
2024-08-22 10: 659 2517 7 29.229999542 50.029998779
2024-08-22 10: 679 2514 7 29.219999313 50.020000458
2024-08-22 10: 670 2518 7 29.219999313 50.049999237
2024-08-22 10: 670 2515 7 29.219999313 50.159999847
2024-08-22 10: 657 2526 6 29.219999313 50.11000061
2024-08-22 10: 665 2514 6 29.219999313 50.11000061
2024-08-22 10: 687 2519 6 29.209999084 49.970001221
2024-08-22 10: 696 2507 6 29.209999084 49.819999695
2024-08-22 10: 681 2523 6 29.200000763 49.819999695
2024-08-22 10: 699 2523 6 29.200000763 50.11000061
2024-08-22 10: 687 2512 6 29.190000534 50.400001526
2024-08-22 11: 693 2525 7 29.190000534 50.560001373
2024-08-22 11: 685 2518 6 29.180000305 50.779998779
2024-08-22 11: 677 2496 7 29.180000305 50.909999847
2024-08-22 11: 688 2516 6 29.180000305 50.880001068
2024-08-22 11: 688 2503 99 29.149999619 50.270000458
2024-08-22 11: 676 2485 18 29.120000839 50.689998627
2024-08-22 11: 688 2525 19 29.100000381 50.689998627
2024-08-22 11: 671 2516 19 29.100000381 50.700000763
2024-08-22 11: 676 2523 20 29.100000381 50.740001678
2024-08-22 11: 703 2496 20 29.100000381 50.560001373
2024-08-22 11: 703 2511 20 29.11000061 50.479999542
2024-08-22 11: 676 2513 20 29.11000061 50.310001373
2024-08-22 11: 705 2499 20 29.11000061 50.310001373
2024-08-22 11: 705 2511 20 29.11000061 50.330001831
2024-08-22 11: 695 2515 20 29.11000061 50.240001678
2024-08-22 11: 702 2514 20 29.11000061 50.020000458
2024-08-22 11: 711 2519 20 29.11000061 49.840000153
2024-08-22 11: 702 2509 20 29.120000839 49.740001678
2024-08-22 11: 706 2513 100 29.11000061 49.61000061
2024-08-22 11: 721 2517 100 29.069999695 49.770000458
2024-08-22 11: 719 2531 7 29.040000916 49.880001068
2024-08-22 11: 734 2525 7 29.020000458 49.720001221
2024-08-22 11: 813 2514 100 28.989999771 49.270000458
2024-08-22 11: 743 2507 100 28.930000305 49.279998779
2024-08-22 11: 748 2512 98 28.86000061 49.099998474
2024-08-22 11: 755 2515 7 28.790000916 49.25
2024-08-22 11: 756 2512 6 28.760000229 49.580001831
2024-08-22 11: 756 2521 7 28.739999771 49.810001373
2024-08-22 11: 773 2519 7 28.729999542 49.990001678
2024-08-22 11: 741 2515 7 28.729999542 50.180000305
2024-08-22 11: 768 2511 7 28.729999542 50.169998169
2024-08-22 11: 751 2516 7 28.739999771 49.950000763
2024-08-22 11: 773 2499 7 28.75 50.169998169
2024-08-22 11: 750 2518 7 28.760000229 50.349998474
2024-08-22 11: 747 2511 7 28.770000458 50.580001831
2024-08-22 11: 769 2512 7 28.770000458 50.450000763
2024-08-22 11: 747 2528 7 28.780000687 50.36000061
2024-08-22 11: 766 2531 7 28.780000687 50.270000458
2024-08-22 11: 744 2512 7 28.780000687 50.380001068
2024-08-22 11: 754 2527 7 28.790000916 50.229999542
2024-08-22 11: 748 2527 7 28.799999237 50.180000305
2024-08-22 11: 753 2514 5 28.799999237 50.150001526
2024-08-22 11: 775 2528 7 28.809999466 50
2024-08-22 11: 748 2521 7 28.819999695 50.069999695
2024-08-22 11: 763 2505 8 28.829999924 50.119998932
2024-08-22 11: 727 2527 8 28.840000153 50.319999695
2024-08-22 11: 745 2513 8 28.840000153 50.459999084
2024-08-22 11: 726 2515 8 28.850000381 50.580001831
2024-08-22 11: 731 2530 8 28.86000061 50.569999695
2024-08-22 11: 735 2511 8 28.86000061 50.409999847
2024-08-22 11: 736 2512 8 28.870000839 50.259998322
2024-08-22 11: 708 2533 7 28.879999161 50.029998779
2024-08-22 11: 749 2514 7 28.879999161 49.959999084
2024-08-22 11: 751 2523 8 28.88999939 49.63999939
2024-08-22 11: 728 2517 8 28.88999939 49.759998322
2024-08-22 11: 713 2523 8 28.899999619 49.830001831
2024-08-22 11: 740 2523 7 28.899999619 49.549999237
2024-08-22 11: 735 2527 8 28.909999847 49.599998474
2024-08-22 11: 730 2506 8 28.909999847 49.590000153
2024-08-22 11: 741 2525 7 28.920000076 49.509998322
2024-08-22 12: 732 2521 8 28.930000305 49.439998627
2024-08-22 12: 742 2512 8 28.930000305 49.36000061
2024-08-22 12: 728 2532 8 28.940000534 49.340000153
2024-08-22 12: 725 2512 8 28.940000534 49.38999939
2024-08-22 12: 718 2516 8 28.950000763 49.430000305
2024-08-22 12: 622 2527 9 28.930000305 50.549999237
2024-08-22 12: 652 2515 5 28.920000076 50.470001221
2024-08-22 12: 662 2531 5 28.909999847 50.159999847
2024-08-22 12: 651 2509 5 28.909999847 50.200000763
2024-08-22 12: 655 2528 9 28.899999619 50.159999847
2024-08-22 12: 617 2527 9 28.899999619 50.069999695
2024-08-22 12: 637 2526 9 28.899999619 50.180000305
2024-08-22 12: 635 2523 9 28.899999619 50.229999542
2024-08-22 12: 638 2527 8 28.899999619 50.119998932
2024-08-22 12: 635 2514 8 28.899999619 50.049999237
2024-08-22 12: 657 2521 9 28.88999939 49.61000061
2024-08-22 12: 644 2516 8 28.88999939 49.599998474
2024-08-22 12: 634 2513 8 28.88999939 49.709999084
2024-08-22 12: 626 2526 7 28.88999939 49.790000916
2024-08-22 12: 635 2522 5 28.879999161 49.86000061
2024-08-22 12: 650 2509 9 28.870000839 49.720001221
2024-08-22 12: 615 2518 10 28.86000061 49.930000305
2024-08-22 12: 656 2523 10 28.86000061 49.770000458
2024-08-22 12: 657 2518 10 28.850000381 49.709999084
2024-08-22 12: 632 2512 10 28.840000153 49.900001526
2024-08-22 12: 640 2517 7 28.829999924 50.189998627
2024-08-22 12: 616 2528 5 28.809999466 50.25
2024-08-22 12: 631 2525 7 28.799999237 50.169998169
2024-08-23 11: 744 2513 8 26.86000061 59.319999695
2024-08-23 11: 773 2513 8 26.879999161 58.799999237
2024-09-10 14: 1512 2512 105 26.88999939 55.159999847
2024-08-14 18: 1320 2515 2 28.270000458 54
2024-08-14 18: 1313 2524 2 28.290000916 53.970001221
2024-08-14 18: 1302 2528 2 28.299999237 53.939998627
2024-08-14 18: 1290 2517 2 28.309999466 53.88999939
2024-08-14 18: 1285 2519 2 28.319999695 53.840000153
2024-08-14 18: 1273 2517 2 28.319999695 53.709999084
2024-08-14 18: 1233 2517 2 28.319999695 53.560001373
2024-08-14 18: 1243 2517 2 28.299999237 53.470001221
2024-08-14 18: 1254 2579 2 28.280000687 53.409999847
2024-08-14 18: 1256 2523 2 28.280000687 53.330001831
2024-08-14 18: 1242 2522 2 28.270000458 53.240001678
2024-08-14 18: 1241 2515 2 28.260000229 53.13999939
2024-08-22 09: 483 2512 7 29.100000381 60.909999847
2024-08-22 09: 502 2506 7 29.129999161 60.720001221
2024-08-22 10: 536 2533 7 29.159999847 60.520000458
2024-08-22 10: 544 2502 7 29.180000305 60.11000061
2024-08-22 10: 574 2505 7 29.200000763 59.950000763
2024-08-22 10: 530 2512 123 29.200000763 56.900001526
2024-08-22 10: 577 2493 122 29.180000305 57.369998932
2024-08-22 10: 604 2526 30 29.170000076 56.740001678
2024-08-22 10: 593 2521 30 29.170000076 55.689998627
2024-08-22 10: 610 2497 30 29.170000076 54.220001221
2024-08-22 10: 654 2512 30 29.170000076 52.909999847
2024-08-22 10: 647 2521 30 29.170000076 51.880001068
2024-08-22 10: 644 2518 31 29.180000305 51.88999939
2024-08-22 10: 617 2521 30 29.190000534 51.880001068
2024-08-22 10: 593 2512 30 29.200000763 51.63999939
2024-08-22 10: 568 2510 30 29.209999084 51.490001678
2024-08-22 10: 566 2528 30 29.219999313 51.299999237
2024-08-22 10: 585 2515 33 29.229999542 51.770000458
2024-08-22 10: 565 2497 33 29.25 52.11000061
2024-08-22 10: 515 2526 126 29.25 51.650001526
2024-08-22 10: 574 2512 123 29.170000076 51.099998474
2024-08-22 10: 565 2527 27 29.159999847 51.529998779
2024-08-22 10: 578 2465 27 29.159999847 51.630001068
2024-08-22 10: 555 2518 27 29.180000305 51.450000763
2024-08-22 10: 577 2527 27 29.190000534 51.380001068
2024-08-22 10: 593 2528 27 29.209999084 50.930000305
2024-08-22 10: 583 2577 27 29.229999542 50.810001373
2024-08-22 10: 581 2518 27 29.239999771 50.560001373
2024-08-22 10: 606 2519 28 29.260000229 50.5
2024-08-22 10: 589 2528 27 29.270000458 50.180000305
2024-08-22 10: 594 2512 27 29.280000687 50.040000916
2024-08-22 10: 607 2517 27 29.290000916 49.88999939
2024-08-22 10: 625 2539 7 29.299999237 49.799999237
2024-08-22 10: 607 2523 7 29.299999237 49.61000061
2024-08-22 10: 614 2518 7 29.309999466 49.540000916
2024-08-22 10: 604 2531 7 29.309999466 49.590000153
2024-08-22 10: 625 2518 8 29.309999466 49.439998627
2024-08-22 10: 614 2512 9 29.309999466 49.220001221
2024-08-22 10: 627 2525 8 29.309999466 49.369998932
2024-08-22 10: 628 2511 9 29.309999466 49.419998169
2024-08-22 10: 620 2475 8 29.299999237 49.310001373
2024-08-22 10: 613 2518 10 29.299999237 49.369998932
2024-08-22 10: 616 2505 9 29.290000916 49.200000763
2024-08-22 10: 626 2523 9 29.280000687 49.080001831
2024-08-22 10: 632 2518 7 29.270000458 49.180000305
2024-08-22 10: 627 2522 9 29.260000229 49.220001221
2024-08-22 10: 615 2518 8 29.260000229 49.490001678
2024-08-22 10: 654 2515 7 29.25 49.599998474
2024-08-22 10: 644 2520 8 29.25 49.849998474
2024-08-22 10: 650 2528 7 29.239999771 50.049999237
2024-08-22 10: 680 2516 8 29.229999542 50.119998932
2024-08-22 10: 659 2517 7 29.229999542 50.029998779
2024-08-22 10: 679 2514 7 29.219999313 50.020000458
2024-08-22 10: 670 2518 7 29.219999313 50.049999237
2024-08-22 10: 670 2515 7 29.219999313 50.159999847
2024-08-22 10: 657 2526 6 29.219999313 50.11000061
2024-08-22 10: 665 2514 6 29.219999313 50.11000061
2024-08-22 10: 687 2519 6 29.209999084 49.970001221
2024-08-22 10: 696 2507 6 29.209999084 49.819999695
2024-08-22 10: 681 2523 6 29.200000763 49.819999695
2024-08-22 10: 699 2523 6 29.200000763 50.11000061
2024-08-22 10: 687 2512 6 29.190000534 50.400001526
2024-08-22 11: 693 2525 7 29.190000534 50.560001373
2024-08-22 11: 685 2518 6 29.180000305 50.779998779
2024-08-22 11: 677 2496 7 29.180000305 50.909999847
2024-08-22 11: 688 2516 6 29.180000305 50.880001068
2024-08-22 11: 688 2503 99 29.149999619 50.270000458
2024-08-22 11: 676 2485 18 29.120000839 50.689998627
2024-08-22 11: 688 2525 19 29.100000381 50.689998627
2024-08-22 11: 671 2516 19 29.100000381 50.700000763
2024-08-22 11: 676 2523 20 29.100000381 50.740001678
2024-08-22 11: 703 2496 20 29.100000381 50.560001373
2024-08-22 11: 703 2511 20 29.11000061 50.479999542
2024-08-22 11: 676 2513 20 29.11000061 50.310001373
2024-08-22 11: 705 2499 20 29.11000061 50.310001373
2024-08-22 11: 705 2511 20 29.11000061 50.330001831
2024-08-22 11: 695 2515 20 29.11000061 50.240001678
2024-08-22 11: 702 2514 20 29.11000061 50.020000458
2024-08-22 11: 711 2519 20 29.11000061 49.840000153
2024-08-22 11: 702 2509 20 29.120000839 49.740001678
2024-08-22 11: 706 2513 100 29.11000061 49.61000061
2024-08-22 11: 721 2517 100 29.069999695 49.770000458
2024-08-22 11: 719 2531 7 29.040000916 49.880001068
2024-08-22 11: 734 2525 7 29.020000458 49.720001221
2024-08-22 11: 813 2514 100 28.989999771 49.270000458
2024-08-22 11: 743 2507 100 28.930000305 49.279998779
2024-08-22 11: 748 2512 98 28.86000061 49.099998474
2024-08-22 11: 755 2515 7 28.790000916 49.25
2024-08-22 11: 756 2512 6 28.760000229 49.580001831
2024-08-22 11: 756 2521 7 28.739999771 49.810001373
2024-08-22 11: 773 2519 7 28.729999542 49.990001678
2024-08-22 11: 741 2515 7 28.729999542 50.180000305
2024-08-22 11: 768 2511 7 28.729999542 50.169998169
2024-08-22 11: 751 2516 7 28.739999771 49.950000763
2024-08-22 11: 773 2499 7 28.75 50.169998169
2024-08-22 11: 750 2518 7 28.760000229 50.349998474
2024-08-22 11: 747 2511 7 28.770000458 50.580001831
2024-08-22 11: 769 2512 7 28.770000458 50.450000763
2024-08-22 11: 747 2528 7 28.780000687 50.36000061
2024-08-22 11: 766 2531 7 28.780000687 50.270000458
2024-08-22 11: 744 2512 7 28.780000687 50.380001068
2024-08-22 11: 754 2527 7 28.790000916 50.229999542
2024-08-22 11: 748 2527 7 28.799999237 50.180000305
2024-08-22 11: 753 2514 5 28.799999237 50.150001526
2024-08-22 11: 775 2528 7 28.809999466 50
2024-08-22 11: 748 2521 7 28.819999695 50.069999695
2024-08-22 11: 763 2505 8 28.829999924 50.119998932
2024-08-22 11: 727 2527 8 28.840000153 50.319999695
2024-08-22 11: 745 2513 8 28.840000153 50.459999084
2024-08-22 11: 726 2515 8 28.850000381 50.580001831
2024-08-22 11: 731 2530 8 28.86000061 50.569999695
2024-08-22 11: 735 2511 8 28.86000061 50.409999847
2024-08-22 11: 736 2512 8 28.870000839 50.259998322
2024-08-22 11: 708 2533 7 28.879999161 50.029998779
2024-08-22 11: 749 2514 7 28.879999161 49.959999084
2024-08-22 11: 751 2523 8 28.88999939 49.63999939
2024-08-22 11: 728 2517 8 28.88999939 49.759998322
2024-08-22 11: 713 2523 8 28.899999619 49.830001831
2024-08-22 11: 740 2523 7 28.899999619 49.549999237
2024-08-22 11: 735 2527 8 28.909999847 49.599998474
2024-08-22 11: 730 2506 8 28.909999847 49.590000153
2024-08-22 11: 741 2525 7 28.920000076 49.509998322
2024-08-22 12: 732 2521 8 28.930000305 49.439998627
2024-08-22 12: 742 2512 8 28.930000305 49.36000061
2024-08-22 12: 728 2532 8 28.940000534 49.340000153
2024-08-22 12: 725 2512 8 28.940000534 49.38999939
2024-08-22 12: 718 2516 8 28.950000763 49.430000305
2024-08-22 12: 622 2527 9 28.930000305 50.549999237
2024-08-22 12: 652 2515 5 28.920000076 50.470001221
2024-08-22 12: 662 2531 5 28.909999847 50.159999847
2024-08-22 12: 651 2509 5 28.909999847 50.200000763
2024-08-22 12: 655 2528 9 28.899999619 50.159999847
2024-08-22 12: 617 2527 9 28.899999619 50.069999695
2024-08-22 12: 637 2526 9 28.899999619 50.180000305
2024-08-22 12: 635 2523 9 28.899999619 50.229999542
2024-08-22 12: 638 2527 8 28.899999619 50.119998932
2024-08-22 12: 635 2514 8 28.899999619 50.049999237
2024-08-22 12: 657 2521 9 28.88999939 49.61000061
2024-08-22 12: 644 2516 8 28.88999939 49.599998474
2024-08-22 12: 634 2513 8 28.88999939 49.709999084
2024-08-22 12: 626 2526 7 28.88999939 49.790000916
2024-08-22 12: 635 2522 5 28.879999161 49.86000061
2024-08-22 12: 650 2509 9 28.870000839 49.720001221
2024-08-22 12: 615 2518 10 28.86000061 49.930000305
2024-08-22 12: 656 2523 10 28.86000061 49.770000458
2024-08-22 12: 657 2518 10 28.850000381 49.709999084
2024-08-22 12: 632 2512 10 28.840000153 49.900001526
2024-08-22 12: 640 2517 7 28.829999924 50.189998627
2024-08-22 12: 616 2528 5 28.809999466 50.25
2024-08-22 12: 631 2525 7 28.799999237 50.169998169
2024-08-23 11: 744 2513 8 26.86000061 59.319999695
2024-08-23 11: 773 2513 8 26.879999161 58.799999237
2024-09-10 14: 1512 2512 105 26.88999939 55.159999847
2024-08-14 18: 1320 2515 2 28.270000458 54
2024-08-14 18: 1313 2524 2 28.290000916 53.970001221
2024-08-14 18: 1302 2528 2 28.299999237 53.939998627
2024-08-14 18: 1290 2517 2 28.309999466 53.88999939
2024-08-14 18: 1285 2519 2 28.319999695 53.840000153
2024-08-14 18: 1273 2517 2 28.319999695 53.709999084
2024-08-14 18: 1233 2517 2 28.319999695 53.560001373
2024-08-14 18: 1243 2517 2 28.299999237 53.470001221
2024-08-14 18: 1254 2579 2 28.280000687 53.409999847
2024-08-14 18: 1256 2523 2 28.280000687 53.330001831
2024-08-14 18: 1242 2522 2 28.270000458 53.240001678
2024-08-14 18: 1241 2515 2 28.260000229 53.13999939
2024-08-22 09: 483 2512 7 29.100000381 60.909999847
2024-08-22 09: 502 2506 7 29.129999161 60.720001221
2024-08-22 10: 536 2533 7 29.159999847 60.520000458
2024-08-22 10: 544 2502 7 29.180000305 60.11000061
2024-08-22 10: 574 2505 7 29.200000763 59.950000763
2024-08-22 10: 530 2512 123 29.200000763 56.900001526
2024-08-22 10: 577 2493 122 29.180000305 57.369998932
2024-08-22 10: 604 2526 30 29.170000076 56.740001678
2024-08-22 10: 593 2521 30 29.170000076 55.689998627
2024-08-22 10: 610 2497 30 29.170000076 54.220001221
2024-08-22 10: 654 2512 30 29.170000076 52.909999847
2024-08-22 10: 647 2521 30 29.170000076 51.880001068
2024-08-22 10: 644 2518 31 29.180000305 51.88999939
2024-08-22 10: 617 2521 30 29.190000534 51.880001068
2024-08-22 10: 593 2512 30 29.200000763 51.63999939
2024-08-22 10: 568 2510 30 29.209999084 51.490001678
2024-08-22 10: 566 2528 30 29.219999313 51.299999237
2024-08-22 10: 585 2515 33 29.229999542 51.770000458
2024-08-22 10: 565 2497 33 29.25 52.11000061
2024-08-22 10: 515 2526 126 29.25 51.650001526
2024-08-22 10: 574 2512 123 29.170000076 51.099998474
2024-08-22 10: 565 2527 27 29.159999847 51.529998779
2024-08-22 10: 578 2465 27 29.159999847 51.630001068
2024-08-22 10: 555 2518 27 29.180000305 51.450000763
2024-08-22 10: 577 2527 27 29.190000534 51.380001068
2024-08-22 10: 593 2528 27 29.209999084 50.930000305
2024-08-22 10: 583 2577 27 29.229999542 50.810001373
2024-08-22 10: 581 2518 27 29.239999771 50.560001373
2024-08-22 10: 606 2519 28 29.260000229 50.5
2024-08-22 10: 589 2528 27 29.270000458 50.180000305
2024-08-22 10: 594 2512 27 29.280000687 50.040000916
2024-08-22 10: 607 2517 27 29.290000916 49.88999939
2024-08-22 10: 625 2539 7 29.299999237 49.799999237
2024-08-22 10: 607 2523 7 29.299999237 49.61000061
2024-08-22 10: 614 2518 7 29.309999466 49.540000916
2024-08-22 10: 604 2531 7 29.309999466 49.590000153
2024-08-22 10: 625 2518 8 29.309999466 49.439998627
2024-08-22 10: 614 2512 9 29.309999466 49.220001221
2024-08-22 10: 627 2525 8 29.309999466 49.369998932
2024-08-22 10: 628 2511 9 29.309999466 49.419998169
2024-08-22 10: 620 2475 8 29.299999237 49.310001373
2024-08-22 10: 613 2518 10 29.299999237 49.369998932
2024-08-22 10: 616 2505 9 29.290000916 49.200000763
2024-08-22 10: 626 2523 9 29.280000687 49.080001831
2024-08-22 10: 632 2518 7 29.270000458 49.180000305
2024-08-22 10: 627 2522 9 29.260000229 49.220001221
2024-08-22 10: 615 2518 8 29.260000229 49.490001678
2024-08-22 10: 654 2515 7 29.25 49.599998474
2024-08-22 10: 644 2520 8 29.25 49.849998474
2024-08-22 10: 650 2528 7 29.239999771 50.049999237
2024-08-22 10: 680 2516 8 29.229999542 50.119998932
2024-08-22 10: 659 2517 7 29.229999542 50.029998779
2024-08-22 10: 679 2514 7 29.219999313 50.020000458
2024-08-22 10: 670 2518 7 29.219999313 50.049999237
2024-08-22 10: 670 2515 7 29.219999313 50.159999847
2024-08-22 10: 657 2526 6 29.219999313 50.11000061
2024-08-22 10: 665 2514 6 29.219999313 50.11000061
2024-08-22 10: 687 2519 6 29.209999084 49.970001221
2024-08-22 10: 696 2507 6 29.209999084 49.819999695
2024-08-22 10: 681 2523 6 29.200000763 49.819999695
2024-08-22 10: 699 2523 6 29.200000763 50.11000061
2024-08-22 10: 687 2512 6 29.190000534 50.400001526
2024-08-22 11: 693 2525 7 29.190000534 50.560001373
2024-08-22 11: 685 2518 6 29.180000305 50.779998779
2024-08-22 11: 677 2496 7 29.180000305 50.909999847
2024-08-22 11: 688 2516 6 29.180000305 50.880001068
2024-08-22 11: 688 2503 99 29.149999619 50.270000458
2024-08-22 11: 676 2485 18 29.120000839 50.689998627
2024-08-22 11: 688 2525 19 29.100000381 50.689998627
2024-08-22 11: 671 2516 19 29.100000381 50.700000763
2024-08-22 11: 676 2523 20 29.100000381 50.740001678
2024-08-22 11: 703 2496 20 29.100000381 50.560001373
2024-08-22 11: 703 2511 20 29.11000061 50.479999542
2024-08-22 11: 676 2513 20 29.11000061 50.310001373
2024-08-22 11: 705 2499 20 29.11000061 50.310001373
2024-08-22 11: 705 2511 20 29.11000061 50.330001831
2024-08-22 11: 695 2515 20 29.11000061 50.240001678
2024-08-22 11: 702 2514 20 29.11000061 50.020000458
2024-08-22 11: 711 2519 20 29.11000061 49.840000153
2024-08-22 11: 702 2509 20 29.120000839 49.740001678
2024-08-22 11: 706 2513 100 29.11000061 49.61000061
2024-08-22 11: 721 2517 100 29.069999695 49.770000458
2024-08-22 11: 719 2531 7 29.040000916 49.880001068
2024-08-22 11: 734 2525 7 29.020000458 49.720001221
2024-08-22 11: 813 2514 100 28.989999771 49.270000458
2024-08-22 11: 743 2507 100 28.930000305 49.279998779
2024-08-22 11: 748 2512 98 28.86000061 49.099998474
2024-08-22 11: 755 2515 7 28.790000916 49.25
2024-08-22 11: 756 2512 6 28.760000229 49.580001831
2024-08-22 11: 756 2521 7 28.739999771 49.810001373
2024-08-22 11: 773 2519 7 28.729999542 49.990001678
2024-08-22 11: 741 2515 7 28.729999542 50.180000305
2024-08-22 11: 768 2511 7 28.729999542 50.169998169
2024-08-22 11: 751 2516 7 28.739999771 49.950000763
2024-08-22 11: 773 2499 7 28.75 50.169998169
2024-08-22 11: 750 2518 7 28.760000229 50.349998474
2024-08-22 11: 747 2511 7 28.770000458 50.580001831
2024-08-22 11: 769 2512 7 28.770000458 50.450000763
2024-08-22 11: 747 2528 7 28.780000687 50.36000061
2024-08-22 11: 766 2531 7 28.780000687 50.270000458
2024-08-22 11: 744 2512 7 28.780000687 50.380001068
2024-08-22 11: 754 2527 7 28.790000916 50.229999542
2024-08-22 11: 748 2527 7 28.799999237 50.180000305
2024-08-22 11: 753 2514 5 28.799999237 50.150001526
2024-08-22 11: 775 2528 7 28.809999466 50
2024-08-22 11: 748 2521 7 28.819999695 50.069999695
2024-08-22 11: 763 2505 8 28.829999924 50.119998932
2024-08-22 11: 727 2527 8 28.840000153 50.319999695
2024-08-22 11: 745 2513 8 28.840000153 50.459999084
2024-08-22 11: 726 2515 8 28.850000381 50.580001831
2024-08-22 11: 731 2530 8 28.86000061 50.569999695
2024-08-22 11: 735 2511 8 28.86000061 50.409999847
2024-08-22 11: 736 2512 8 28.870000839 50.259998322
2024-08-22 11: 708 2533 7 28.879999161 50.029998779
2024-08-22 11: 749 2514 7 28.879999161 49.959999084
2024-08-22 11: 751 2523 8 28.88999939 49.63999939
2024-08-22 11: 728 2517 8 28.88999939 49.759998322
2024-08-22 11: 713 2523 8 28.899999619 49.830001831
2024-08-22 11: 740 2523 7 28.899999619 49.549999237
2024-08-22 11: 735 2527 8 28.909999847 49.599998474
2024-08-22 11: 730 2506 8 28.909999847 49.590000153
2024-08-22 11: 741 2525 7 28.920000076 49.509998322
2024-08-22 12: 732 2521 8 28.930000305 49.439998627
2024-08-22 12: 742 2512 8 28.930000305 49.36000061
2024-08-22 12: 728 2532 8 28.940000534 49.340000153
2024-08-22 12: 725 2512 8 28.940000534 49.38999939
2024-08-22 12: 718 2516 8 28.950000763 49.430000305
2024-08-22 12: 622 2527 9 28.930000305 50.549999237
2024-08-22 12: 652 2515 5 28.920000076 50.470001221
2024-08-22 12: 662 2531 5 28.909999847 50.159999847
2024-08-22 12: 651 2509 5 28.909999847 50.200000763
2024-08-22 12: 655 2528 9 28.899999619 50.159999847
2024-08-22 12: 617 2527 9 28.899999619 50.069999695
2024-08-22 12: 637 2526 9 28.899999619 50.180000305
2024-08-22 12: 635 2523 9 28.899999619 50.229999542
2024-08-22 12: 638 2527 8 28.899999619 50.119998932
2024-08-22 12: 635 2514 8 28.899999619 50.049999237
2024-08-22 12: 657 2521 9 28.88999939 49.61000061
2024-08-22 12: 644 2516 8 28.88999939 49.599998474
2024-08-22 12: 634 2513 8 28.88999939 49.709999084
2024-08-22 12: 626 2526 7 28.88999939 49.790000916
2024-08-22 12: 635 2522 5 28.879999161 49.86000061
2024-08-22 12: 650 2509 9 28.870000839 49.720001221
2024-08-22 12: 615 2518 10 28.86000061 49.930000305
2024-08-22 12: 656 2523 10 28.86000061 49.770000458
2024-08-22 12: 657 2518 10 28.850000381 49.709999084
2024-08-22 12: 632 2512 10 28.840000153 49.900001526
2024-08-22 12: 640 2517 7 28.829999924 50.189998627
2024-08-22 12: 616 2528 5 28.809999466 50.25
2024-08-22 12: 631 2525 7 28.799999237 50.169998169
2024-08-23 11: 744 2513 8 26.86000061 59.319999695
2024-08-23 11: 773 2513 8 26.879999161 58.799999237
2024-09-10 14: 1512 2512 105 26.88999939 55.159999847
2024-08-14 18: 1320 2515 2 28.270000458 54
2024-08-14 18: 1313 2524 2 28.290000916 53.970001221
2024-08-14 18: 1302 2528 2 28.299999237 53.939998627
2024-08-14 18: 1290 2517 2 28.309999466 53.88999939
2024-08-14 18: 1285 2519 2 28.319999695 53.840000153
2024-08-14 18: 1273 2517 2 28.319999695 53.709999084
2024-08-14 18: 1233 2517 2 28.319999695 53.560001373
2024-08-14 18: 1243 2517 2 28.299999237 53.470001221
2024-08-14 18: 1254 2579 2 28.280000687 53.409999847
2024-08-14 18: 1256 2523 2 28.280000687 53.330001831
2024-08-14 18: 1242 2522 2 28.270000458 53.240001678
2024-08-14 18: 1241 2515 2 28.260000229 53.13999939
2024-08-22 09: 483 2512 7 29.100000381 60.909999847
2024-08-22 09: 502 2506 7 29.129999161 60.720001221
2024-08-22 10: 536 2533 7 29.159999847 60.520000458
2024-08-22 10: 544 2502 7 29.180000305 60.11000061
2024-08-22 10: 574 2505 7 29.200000763 59.950000763
2024-08-22 10: 530 2512 123 29.200000763 56.900001526
2024-08-22 10: 577 2493 122 29.180000305 57.369998932
2024-08-22 10: 604 2526 30 29.170000076 56.740001678
2024-08-22 10: 593 2521 30 29.170000076 55.689998627
2024-08-22 10: 610 2497 30 29.170000076 54.220001221
2024-08-22 10: 654 2512 30 29.170000076 52.909999847
2024-08-22 10: 647 2521 30 29.170000076 51.880001068
2024-08-22 10: 644 2518 31 29.180000305 51.88999939
2024-08-22 10: 617 2521 30 29.190000534 51.880001068
2024-08-22 10: 593 2512 30 29.200000763 51.63999939
2024-08-22 10: 568 2510 30 29.209999084 51.490001678
2024-08-22 10: 566 2528 30 29.219999313 51.299999237
2024-08-22 10: 585 2515 33 29.229999542 51.770000458
2024-08-22 10: 565 2497 33 29.25 52.11000061
2024-08-22 10: 515 2526 126 29.25 51.650001526
2024-08-22 10: 574 2512 123 29.170000076 51.099998474
2024-08-22 10: 565 2527 27 29.159999847 51.529998779
2024-08-22 10: 578 2465 27 29.159999847 51.630001068
2024-08-22 10: 555 2518 27 29.180000305 51.450000763
2024-08-22 10: 577 2527 27 29.190000534 51.380001068
2024-08-22 10: 593 2528 27 29.209999084 50.930000305
2024-08-22 10: 583 2577 27 29.229999542 50.810001373
2024-08-22 10: 581 2518 27 29.239999771 50.560001373
2024-08-22 10: 606 2519 28 29.260000229 50.5
2024-08-22 10: 589 2528 27 29.270000458 50.180000305
2024-08-22 10: 594 2512 27 29.280000687 50.040000916
2024-08-22 10: 607 2517 27 29.290000916 49.88999939
2024-08-22 10: 625 2539 7 29.299999237 49.799999237
2024-08-22 10: 607 2523 7 29.299999237 49.61000061
2024-08-22 10: 614 2518 7 29.309999466 49.540000916
2024-08-22 10: 604 2531 7 29.309999466 49.590000153
2024-08-22 10: 625 2518 8 29.309999466 49.439998627
2024-08-22 10: 614 2512 9 29.309999466 49.220001221
2024-08-22 10: 627 2525 8 29.309999466 49.369998932
2024-08-22 10: 628 2511 9 29.309999466 49.419998169
2024-08-22 10: 620 2475 8 29.299999237 49.310001373
2024-08-22 10: 613 2518 10 29.299999237 49.369998932
2024-08-22 10: 616 2505 9 29.290000916 49.200000763
2024-08-22 10: 626 2523 9 29.280000687 49.080001831
2024-08-22 10: 632 2518 7 29.270000458 49.180000305
2024-08-22 10: 627 2522 9 29.260000229 49.220001221
2024-08-22 10: 615 2518 8 29.260000229 49.490001678
2024-08-22 10: 654 2515 7 29.25 49.599998474
2024-08-22 10: 644 2520 8 29.25 49.849998474
2024-08-22 10: 650 2528 7 29.239999771 50.049999237
2024-08-22 10: 680 2516 8 29.229999542 50.119998932
2024-08-22 10: 659 2517 7 29.229999542 50.029998779
2024-08-22 10: 679 2514 7 29.219999313 50.020000458
2024-08-22 10: 670 2518 7 29.219999313 50.049999237
2024-08-22 10: 670 2515 7 29.219999313 50.159999847
2024-08-22 10: 657 2526 6 29.219999313 50.11000061
2024-08-22 10: 665 2514 6 29.219999313 50.11000061
2024-08-22 10: 687 2519 6 29.209999084 49.970001221
2024-08-22 10: 696 2507 6 29.209999084 49.819999695
2024-08-22 10: 681 2523 6 29.200000763 49.819999695
2024-08-22 10: 699 2523 6 29.200000763 50.11000061
2024-08-22 10: 687 2512 6 29.190000534 50.400001526
2024-08-22 11: 693 2525 7 29.190000534 50.560001373
2024-08-22 11: 685 2518 6 29.180000305 50.779998779
2024-08-22 11: 677 2496 7 29.180000305 50.909999847
2024-08-22 11: 688 2516 6 29.180000305 50.880001068
2024-08-22 11: 688 2503 99 29.149999619 50.270000458
2024-08-22 11: 676 2485 18 29.120000839 50.689998627
2024-08-22 11: 688 2525 19 29.100000381 50.689998627
2024-08-22 11: 671 2516 19 29.100000381 50.700000763
2024-08-22 11: 676 2523 20 29.100000381 50.740001678
2024-08-22 11: 703 2496 20 29.100000381 50.560001373
2024-08-22 11: 703 2511 20 29.11000061 50.479999542
2024-08-22 11: 676 2513 20 29.11000061 50.310001373
2024-08-22 11: 705 2499 20 29.11000061 50.310001373
2024-08-22 11: 705 2511 20 29.11000061 50.330001831
2024-08-22 11: 695 2515 20 29.11000061 50.240001678
2024-08-22 11: 702 2514 20 29.11000061 50.020000458
2024-08-22 11: 711 2519 20 29.11000061 49.840000153
2024-08-22 11: 702 2509 20 29.120000839 49.740001678
2024-08-22 11: 706 2513 100 29.11000061 49.61000061
2024-08-22 11: 721 2517 100 29.069999695 49.770000458
2024-08-22 11: 719 2531 7 29.040000916 49.880001068
2024-08-22 11: 734 2525 7 29.020000458 49.720001221
2024-08-22 11: 813 2514 100 28.989999771 49.270000458
2024-08-22 11: 743 2507 100 28.930000305 49.279998779
2024-08-22 11: 748 2512 98 28.86000061 49.099998474
2024-08-22 11: 755 2515 7 28.790000916 49.25
2024-08-22 11: 756 2512 6 28.760000229 49.580001831
2024-08-22 11: 756 2521 7 28.739999771 49.810001373
2024-08-22 11: 773 2519 7 28.729999542 49.990001678
2024-08-22 11: 741 2515 7 28.729999542 50.180000305
2024-08-22 11: 768 2511 7 28.729999542 50.169998169
2024-08-22 11: 751 2516 7 28.739999771 49.950000763
2024-08-22 11: 773 2499 7 28.75 50.169998169
2024-08-22 11: 750 2518 7 28.760000229 50.349998474
2024-08-22 11: 747 2511 7 28.770000458 50.580001831
2024-08-22 11: 769 2512 7 28.770000458 50.450000763
2024-08-22 11: 747 2528 7 28.780000687 50.36000061
2024-08-22 11: 766 2531 7 28.780000687 50.270000458
2024-08-22 11: 744 2512 7 28.780000687 50.380001068
2024-08-22 11: 754 2527 7 28.790000916 50.229999542
2024-08-22 11: 748 2527 7 28.799999237 50.180000305
2024-08-22 11: 753 2514 5 28.799999237 50.150001526
2024-08-22 11: 775 2528 7 28.809999466 50
2024-08-22 11: 748 2521 7 28.819999695 50.069999695
2024-08-22 11: 763 2505 8 28.829999924 50.119998932
2024-08-22 11: 727 2527 8 28.840000153 50.319999695
2024-08-22 11: 745 2513 8 28.840000153 50.459999084
2024-08-22 11: 726 2515 8 28.850000381 50.580001831
2024-08-22 11: 731 2530 8 28.86000061 50.569999695
2024-08-22 11: 735 2511 8 28.86000061 50.409999847
2024-08-22 11: 736 2512 8 28.870000839 50.259998322
2024-08-22 11: 708 2533 7 28.879999161 50.029998779
2024-08-22 11: 749 2514 7 28.879999161 49.959999084
2024-08-22 11: 751 2523 8 28.88999939 49.63999939
2024-08-22 11: 728 2517 8 28.88999939 49.759998322
2024-08-22 11: 713 2523 8 28.899999619 49.830001831
2024-08-22 11: 740 2523 7 28.899999619 49.549999237
2024-08-22 11: 735 2527 8 28.909999847 49.599998474
2024-08-22 11: 730 2506 8 28.909999847 49.590000153
2024-08-22 11: 741 2525 7 28.920000076 49.509998322
2024-08-22 12: 732 2521 8 28.930000305 49.439998627
2024-08-22 12: 742 2512 8 28.930000305 49.36000061
2024-08-22 12: 728 2532 8 28.940000534 49.340000153
2024-08-22 12: 725 2512 8 28.940000534 49.38999939
2024-08-22 12: 718 2516 8 28.950000763 49.430000305
2024-08-22 12: 622 2527 9 28.930000305 50.549999237
2024-08-22 12: 652 2515 5 28.920000076 50.470001221
2024-08-22 12: 662 2531 5 28.909999847 50.159999847
2024-08-22 12: 651 2509 5 28.909999847 50.200000763
2024-08-22 12: 655 2528 9 28.899999619 50.159999847
2024-08-22 12: 617 2527 9 28.899999619 50.069999695
2024-08-22 12: 637 2526 9 28.899999619 50.180000305
2024-08-22 12: 635 2523 9 28.899999619 50.229999542
2024-08-22 12: 638 2527 8 28.899999619 50.119998932
2024-08-22 12: 635 2514 8 28.899999619 50.049999237
2024-08-22 12: 657 2521 9 28.88999939 49.61000061
2024-08-22 12: 644 2516 8 28.88999939 49.599998474
2024-08-22 12: 634 2513 8 28.88999939 49.709999084
2024-08-22 12: 626 2526 7 28.88999939 49.790000916
2024-08-22 12: 635 2522 5 28.879999161 49.86000061
2024-08-22 12: 650 2509 9 28.870000839 49.720001221
2024-08-22 12: 615 2518 10 28.86000061 49.930000305
2024-08-22 12: 656 2523 10 28.86000061 49.770000458
2024-08-22 12: 657 2518 10 28.850000381 49.709999084
2024-08-22 12: 632 2512 10 28.840000153 49.900001526
2024-08-22 12: 640 2517 7 28.829999924 50.189998627
2024-08-22 12: 616 2528 5 28.809999466 50.25
2024-08-22 12: 631 2525 7 28.799999237 50.169998169
2024-08-23 11: 744 2513 8 26.86000061 59.319999695
2024-08-23 11: 773 2513 8 26.879999161 58.799999237
2024-09-10 14: 1512 2512 105 26.88999939 55.159999847
2024-08-14 18: 1320 2515 2 28.270000458 54
2024-08-14 18: 1313 2524 2 28.290000916 53.970001221
2024-08-14 18: 1302 2528 2 28.299999237 53.939998627
2024-08-14 18: 1290 2517 2 28.309999466 53.88999939
2024-08-14 18: 1285 2519 2 28.319999695 53.840000153
2024-08-14 18: 1273 2517 2 28.319999695 53.709999084
2024-08-14 18: 1233 2517 2 28.319999695 53.560001373
2024-08-14 18: 1243 2517 2 28.299999237 53.470001221
2024-08-14 18: 1254 2579 2 28.280000687 53.409999847
2024-08-14 18: 1256 2523 2 28.280000687 53.330001831
2024-08-14 18: 1242 2522 2 28.270000458 53.240001678
2024-08-14 18: 1241 2515 2 28.260000229 53.13999939
2024-08-22 09: 483 2512 7 29.100000381 60.909999847
2024-08-22 09: 502 2506 7 29.129999161 60.720001221
2024-08-22 10: 536 2533 7 29.159999847 60.520000458
2024-08-22 10: 544 2502 7 29.180000305 60.11000061
2024-08-22 10: 574 2505 7 29.200000763 59.950000763
2024-08-22 10: 530 2512 123 29.200000763 56.900001526
2024-08-22 10: 577 2493 122 29.180000305 57.369998932
2024-08-22 10: 604 2526 30 29.170000076 56.740001678
2024-08-22 10: 593 2521 30 29.170000076 55.689998627
2024-08-22 10: 610 2497 30 29.170000076 54.220001221
2024-08-22 10: 654 2512 30 29.170000076 52.909999847
2024-08-22 10: 647 2521 30 29.170000076 51.880001068
2024-08-22 10: 644 2518 31 29.180000305 51.88999939
2024-08-22 10: 617 2521 30 29.190000534 51.880001068
2024-08-22 10: 593 2512 30 29.200000763 51.63999939
2024-08-22 10: 568 2510 30 29.209999084 51.490001678
2024-08-22 10: 566 2528 30 29.219999313 51.299999237
2024-08-22 10: 585 2515 33 29.229999542 51.770000458
2024-08-22 10: 565 2497 33 29.25 52.11000061
2024-08-22 10: 515 2526 126 29.25 51.650001526
2024-08-22 10: 574 2512 123 29.170000076 51.099998474
2024-08-22 10: 565 2527 27 29.159999847 51.529998779
2024-08-22 10: 578 2465 27 29.159999847 51.630001068
2024-08-22 10: 555 2518 27 29.180000305 51.450000763
2024-08-22 10: 577 2527 27 29.190000534 51.380001068
2024-08-22 10: 593 2528 27 29.209999084 50.930000305
2024-08-22 10: 583 2577 27 29.229999542 50.810001373
2024-08-22 10: 581 2518 27 29.239999771 50.560001373
2024-08-22 10: 606 2519 28 29.260000229 50.5
2024-08-22 10: 589 2528 27 29.270000458 50.180000305
2024-08-22 10: 594 2512 27 29.280000687 50.040000916
2024-08-22 10: 607 2517 27 29.290000916 49.88999939
2024-08-22 10: 625 2539 7 29.299999237 49.799999237
2024-08-22 10: 607 2523 7 29.299999237 49.61000061
2024-08-22 10: 614 2518 7 29.309999466 49.540000916
2024-08-22 10: 604 2531 7 29.309999466 49.590000153
2024-08-22 10: 625 2518 8 29.309999466 49.439998627
2024-08-22 10: 614 2512 9 29.309999466 49.220001221
2024-08-22 10: 627 2525 8 29.309999466 49.369998932
2024-08-22 10: 628 2511 9 29.309999466 49.419998169
2024-08-22 10: 620 2475 8 29.299999237 49.310001373
2024-08-22 10: 613 2518 10 29.299999237 49.369998932
2024-08-22 10: 616 2505 9 29.290000916 49.200000763
2024-08-22 10: 626 2523 9 29.280000687 49.080001831
2024-08-22 10: 632 2518 7 29.270000458 49.180000305
2024-08-22 10: 627 2522 9 29.260000229 49.220001221
2024-08-22 10: 615 2518 8 29.260000229 49.490001678
2024-08-22 10: 654 2515 7 29.25 49.599998474
2024-08-22 10: 644 2520 8 29.25 49.849998474
2024-08-22 10: 650 2528 7 29.239999771 50.049999237
2024-08-22 10: 680 2516 8 29.229999542 50.119998932
2024-08-22 10: 659 2517 7 29.229999542 50.029998779
2024-08-22 10: 679 2514 7 29.219999313 50.020000458
2024-08-22 10: 670 2518 7 29.219999313 50.049999237
2024-08-22 10: 670 2515 7 29.219999313 50.159999847
2024-08-22 10: 657 2526 6 29.219999313 50.11000061
2024-08-22 10: 665 2514 6 29.219999313 50.11000061
2024-08-22 10: 687 2519 6 29.209999084 49.970001221
2024-08-22 10: 696 2507 6 29.209999084 49.819999695
2024-08-22 10: 681 2523 6 29.200000763 49.819999695
2024-08-22 10: 699 2523 6 29.200000763 50.11000061
2024-08-22 10: 687 2512 6 29.190000534 50.400001526
2024-08-22 11: 693 2525 7 29.190000534 50.560001373
2024-08-22 11: 685 2518 6 29.180000305 50.779998779
2024-08-22 11: 677 2496 7 29.180000305 50.909999847
2024-08-22 11: 688 2516 6 29.180000305 50.880001068
2024-08-22 11: 688 2503 99 29.149999619 50.270000458
2024-08-22 11: 676 2485 18 29.120000839 50.689998627
2024-08-22 11: 688 2525 19 29.100000381 50.689998627
2024-08-22 11: 671 2516 19 29.100000381 50.700000763
2024-08-22 11: 676 2523 20 29.100000381 50.740001678
2024-08-22 11: 703 2496 20 29.100000381 50.560001373
2024-08-22 11: 703 2511 20 29.11000061 50.479999542
2024-08-22 11: 676 2513 20 29.11000061 50.310001373
2024-08-22 11: 705 2499 20 29.11000061 50.310001373
2024-08-22 11: 705 2511 20 29.11000061 50.330001831
2024-08-22 11: 695 2515 20 29.11000061 50.240001678
2024-08-22 11: 702 2514 20 29.11000061 50.020000458
2024-08-22 11: 711 2519 20 29.11000061 49.840000153
2024-08-22 11: 702 2509 20 29.120000839 49.740001678
2024-08-22 11: 706 2513 100 29.11000061 49.61000061
2024-08-22 11: 721 2517 100 29.069999695 49.770000458
2024-08-22 11: 719 2531 7 29.040000916 49.880001068
2024-08-22 11: 734 2525 7 29.020000458 49.720001221
2024-08-22 11: 813 2514 100 28.989999771 49.270000458
2024-08-22 11: 743 2507 100 28.930000305 49.279998779
2024-08-22 11: 748 2512 98 28.86000061 49.099998474
2024-08-22 11: 755 2515 7 28.790000916 49.25
2024-08-22 11: 756 2512 6 28.760000229 49.580001831
2024-08-22 11: 756 2521 7 28.739999771 49.810001373
2024-08-22 11: 773 2519 7 28.729999542 49.990001678
2024-08-22 11: 741 2515 7 28.729999542 50.180000305
2024-08-22 11: 768 2511 7 28.729999542 50.169998169
2024-08-22 11: 751 2516 7 28.739999771 49.950000763
2024-08-22 11: 773 2499 7 28.75 50.169998169
2024-08-22 11: 750 2518 7 28.760000229 50.349998474
2024-08-22 11: 747 2511 7 28.770000458 50.580001831
2024-08-22 11: 769 2512 7 28.770000458 50.450000763
2024-08-22 11: 747 2528 7 28.780000687 50.36000061
2024-08-22 11: 766 2531 7 28.780000687 50.270000458
2024-08-22 11: 744 2512 7 28.780000687 50.380001068
2024-08-22 11: 754 2527 7 28.790000916 50.229999542
2024-08-22 11: 748 2527 7 28.799999237 50.180000305
2024-08-22 11: 753 2514 5 28.799999237 50.150001526
2024-08-22 11: 775 2528 7 28.809999466 50
2024-08-22 11: 748 2521 7 28.819999695 50.069999695
2024-08-22 11: 763 2505 8 28.829999924 50.119998932
2024-08-22 11: 727 2527 8 28.840000153 50.319999695
2024-08-22 11: 745 2513 8 28.840000153 50.459999084
2024-08-22 11: 726 2515 8 28.850000381 50.580001831
2024-08-22 11: 731 2530 8 28.86000061 50.569999695
2024-08-22 11: 735 2511 8 28.86000061 50.409999847
2024-08-22 11: 736 2512 8 28.870000839 50.259998322
2024-08-22 11: 708 2533 7 28.879999161 50.029998779
2024-08-22 11: 749 2514 7 28.879999161 49.959999084
2024-08-22 11: 751 2523 8 28.88999939 49.63999939
2024-08-22 11: 728 2517 8 28.88999939 49.759998322
2024-08-22 11: 713 2523 8 28.899999619 49.830001831
2024-08-22 11: 740 2523 7 28.899999619 49.549999237
2024-08-22 11: 735 2527 8 28.909999847 49.599998474
2024-08-22 11: 730 2506 8 28.909999847 49.590000153
2024-08-22 11: 741 2525 7 28.920000076 49.509998322
2024-08-22 12: 732 2521 8 28.930000305 49.439998627
2024-08-22 12: 742 2512 8 28.930000305 49.36000061
2024-08-22 12: 728 2532 8 28.940000534 49.340000153
2024-08-22 12: 725 2512 8 28.940000534 49.38999939
2024-08-22 12: 718 2516 8 28.950000763 49.430000305
2024-08-22 12: 622 2527 9 28.930000305 50.549999237
2024-08-22 12: 652 2515 5 28.920000076 50.470001221
2024-08-22 12: 662 2531 5 28.909999847 50.159999847
2024-08-22 12: 651 2509 5 28.909999847 50.200000763
2024-08-22 12: 655 2528 9 28.899999619 50.159999847
2024-08-22 12: 617 2527 9 28.899999619 50.069999695
2024-08-22 12: 637 2526 9 28.899999619 50.180000305
2024-08-22 12: 635 2523 9 28.899999619 50.229999542
2024-08-22 12: 638 2527 8 28.899999619 50.119998932
2024-08-22 12: 635 2514 8 28.899999619 50.049999237
2024-08-22 12: 657 2521 9 28.88999939 49.61000061
2024-08-22 12: 644 2516 8 28.88999939 49.599998474
2024-08-22 12: 634 2513 8 28.88999939 49.709999084
2024-08-22 12: 626 2526 7 28.88999939 49.790000916
2024-08-22 12: 635 2522 5 28.879999161 49.86000061
2024-08-22 12: 650 2509 9 28.870000839 49.720001221
2024-08-22 12: 615 2518 10 28.86000061 49.930000305
2024-08-22 12: 656 2523 10 28.86000061 49.770000458
2024-08-22 12: 657 2518 10 28.850000381 49.709999084
2024-08-22 12: 632 2512 10 28.840000153 49.900001526
2024-08-22 12: 640 2517 7 28.829999924 50.189998627
2024-08-22 12: 616 2528 5 28.809999466 50.25
2024-08-22 12: 631 2525 7 28.799999237 50.169998169
2024-08-23 11: 744 2513 8 26.86000061 59.319999695
2024-08-23 11: 773 2513 8 26.879999161 58.799999237
2024-09-10 14: 1512 2512 105 26.88999939 55.159999847
2024-08-14 18: 1320 2515 2 28.270000458 54
2024-08-14 18: 1313 2524 2 28.290000916 53.970001221
2024-08-14 18: 1302 2528 2 28.299999237 53.939998627
2024-08-14 18: 1290 2517 2 28.309999466 53.88999939
2024-08-14 18: 1285 2519 2 28.319999695 53.840000153
2024-08-14 18: 1273 2517 2 28.319999695 53.709999084
2024-08-14 18: 1233 2517 2 28.319999695 53.560001373
2024-08-14 18: 1243 2517 2 28.299999237 53.470001221
2024-08-14 18: 1254 2579 2 28.280000687 53.409999847
2024-08-14 18: 1256 2523 2 28.280000687 53.330001831
2024-08-14 18: 1242 2522 2 28.270000458 53.240001678
2024-08-14 18: 1241 2515 2 28.260000229 53.13999939
2024-08-22 09: 483 2512 7 29.100000381 60.909999847
2024-08-22 09: 502 2506 7 29.129999161 60.720001221
2024-08-22 10: 536 2533 7 29.159999847 60.520000458
2024-08-22 10: 544 2502 7 29.180000305 60.11000061
2024-08-22 10: 574 2505 7 29.200000763 59.950000763
2024-08-22 10: 530 2512 123 29.200000763 56.900001526
2024-08-22 10: 577 2493 122 29.180000305 57.369998932
2024-08-22 10: 604 2526 30 29.170000076 56.740001678
2024-08-22 10: 593 2521 30 29.170000076 55.689998627
2024-08-22 10: 610 2497 30 29.170000076 54.220001221
2024-08-22 10: 654 2512 30 29.170000076 52.909999847
2024-08-22 10: 647 2521 30 29.170000076 51.880001068
2024-08-22 10: 644 2518 31 29.180000305 51.88999939
2024-08-22 10: 617 2521 30 29.190000534 51.880001068
2024-08-22 10: 593 2512 30 29.200000763 51.63999939
2024-08-22 10: 568 2510 30 29.209999084 51.490001678
2024-08-22 10: 566 2528 30 29.219999313 51.299999237
2024-08-22 10: 585 2515 33 29.229999542 51.770000458
2024-08-22 10: 565 2497 33 29.25 52.11000061
2024-08-22 10: 515 2526 126 29.25 51.650001526
2024-08-22 10: 574 2512 123 29.170000076 51.099998474
2024-08-22 10: 565 2527 27 29.159999847 51.529998779
2024-08-22 10: 578 2465 27 29.159999847 51.630001068
2024-08-22 10: 555 2518 27 29.180000305 51.450000763
2024-08-22 10: 577 2527 27 29.190000534 51.380001068
2024-08-22 10: 593 2528 27 29.209999084 50.930000305
2024-08-22 10: 583 2577 27 29.229999542 50.810001373
2024-08-22 10: 581 2518 27 29.239999771 50.560001373
2024-08-22 10: 606 2519 28 29.260000229 50.5
2024-08-22 10: 589 2528 27 29.270000458 50.180000305
2024-08-22 10: 594 2512 27 29.280000687 50.040000916
2024-08-22 10: 607 2517 27 29.290000916 49.88999939
2024-08-22 10: 625 2539 7 29.299999237 49.799999237
2024-08-22 10: 607 2523 7 29.299999237 49.61000061
2024-08-22 10: 614 2518 7 29.309999466 49.540000916
2024-08-22 10: 604 2531 7 29.309999466 49.590000153
2024-08-22 10: 625 2518 8 29.309999466 49.439998627
2024-08-22 10: 614 2512 9 29.309999466 49.220001221
2024-08-22 10: 627 2525 8 29.309999466 49.369998932
2024-08-22 10: 628 2511 9 29.309999466 49.419998169
2024-08-22 10: 620 2475 8 29.299999237 49.310001373
2024-08-22 10: 613 2518 10 29.299999237 49.369998932
2024-08-22 10: 616 2505 9 29.290000916 49.200000763
2024-08-22 10: 626 2523 9 29.280000687 49.080001831
2024-08-22 10: 632 2518 7 29.270000458 49.180000305
2024-08-22 10: 627 2522 9 29.260000229 49.220001221
2024-08-22 10: 615 2518 8 29.260000229 49.490001678
2024-08-22 10: 654 2515 7 29.25 49.599998474
2024-08-22 10: 644 2520 8 29.25 49.849998474
2024-08-22 10: 650 2528 7 29.239999771 50.049999237
2024-08-22 10: 680 2516 8 29.229999542 50.119998932
2024-08-22 10: 659 2517 7 29.229999542 50.029998779
2024-08-22 10: 679 2514 7 29.219999313 50.020000458
2024-08-22 10: 670 2518 7 29.219999313 50.049999237
2024-08-22 10: 670 2515 7 29.219999313 50.159999847
2024-08-22 10: 657 2526 6 29.219999313 50.11000061
2024-08-22 10: 665 2514 6 29.219999313 50.11000061
2024-08-22 10: 687 2519 6 29.209999084 49.970001221
2024-08-22 10: 696 2507 6 29.209999084 49.819999695
2024-08-22 10: 681 2523 6 29.200000763 49.819999695
2024-08-22 10: 699 2523 6 29.200000763 50.11000061
2024-08-22 10: 687 2512 6 29.190000534 50.400001526
2024-08-22 11: 693 2525 7 29.190000534 50.560001373
2024-08-22 11: 685 2518 6 29.180000305 50.779998779
2024-08-22 11: 677 2496 7 29.180000305 50.909999847
2024-08-22 11: 688 2516 6 29.180000305 50.880001068
2024-08-22 11: 688 2503 99 29.149999619 50.270000458
2024-08-22 11: 676 2485 18 29.120000839 50.689998627
2024-08-22 11: 688 2525 19 29.100000381 50.689998627
2024-08-22 11: 671 2516 19 29.100000381 50.700000763
2024-08-22 11: 676 2523 20 29.100000381 50.740001678
2024-08-22 11: 703 2496 20 29.100000381 50.560001373
2024-08-22 11: 703 2511 20 29.11000061 50.479999542
2024-08-22 11: 676 2513 20 29.11000061 50.310001373
2024-08-22 11: 705 2499 20 29.11000061 50.310001373
2024-08-22 11: 705 2511 20 29.11000061 50.330001831
2024-08-22 11: 695 2515 20 29.11000061 50.240001678
2024-08-22 11: 702 2514 20 29.11000061 50.020000458
2024-08-22 11: 711 2519 20 29.11000061 49.840000153
2024-08-22 11: 702 2509 20 29.120000839 49.740001678
2024-08-22 11: 706 2513 100 29.11000061 49.61000061
2024-08-22 11: 721 2517 100 29.069999695 49.770000458
2024-08-22 11: 719 2531 7 29.040000916 49.880001068
2024-08-22 11: 734 2525 7 29.020000458 49.720001221
2024-08-22 11: 813 2514 100 28.989999771 49.270000458
2024-08-22 11: 743 2507 100 28.930000305 49.279998779
2024-08-22 11: 748 2512 98 28.86000061 49.099998474
2024-08-22 11: 755 2515 7 28.790000916 49.25
2024-08-22 11: 756 2512 6 28.760000229 49.580001831
2024-08-22 11: 756 2521 7 28.739999771 49.810001373
2024-08-22 11: 773 2519 7 28.729999542 49.990001678
2024-08-22 11: 741 2515 7 28.729999542 50.180000305
2024-08-22 11: 768 2511 7 28.729999542 50.169998169
2024-08-22 11: 751 2516 7 28.739999771 49.950000763
2024-08-22 11: 773 2499 7 28.75 50.169998169
2024-08-22 11: 750 2518 7 28.760000229 50.349998474
2024-08-22 11: 747 2511 7 28.770000458 50.580001831
2024-08-22 11: 769 2512 7 28.770000458 50.450000763
2024-08-22 11: 747 2528 7 28.780000687 50.36000061
2024-08-22 11: 766 2531 7 28.780000687 50.270000458
2024-08-22 11: 744 2512 7 28.780000687 50.380001068
2024-08-22 11: 754 2527 7 28.790000916 50.229999542
2024-08-22 11: 748 2527 7 28.799999237 50.180000305
2024-08-22 11: 753 2514 5 28.799999237 50.150001526
2024-08-22 11: 775 2528 7 28.809999466 50
2024-08-22 11: 748 2521 7 28.819999695 50.069999695
2024-08-22 11: 763 2505 8 28.829999924 50.119998932
2024-08-22 11: 727 2527 8 28.840000153 50.319999695
2024-08-22 11: 745 2513 8 28.840000153 50.459999084
2024-08-22 11: 726 2515 8 28.850000381 50.580001831
2024-08-22 11: 731 2530 8 28.86000061 50.569999695
2024-08-22 11: 735 2511 8 28.86000061 50.409999847
2024-08-22 11: 736 2512 8 28.870000839 50.259998322
2024-08-22 11: 708 2533 7 28.879999161 50.029998779
2024-08-22 11: 749 2514 7 28.879999161 49.959999084
2024-08-22 11: 751 2523 8 28.88999939 49.63999939
2024-08-22 11: 728 2517 8 28.88999939 49.759998322
2024-08-22 11: 713 2523 8 28.899999619 49.830001831
2024-08-22 11: 740 2523 7 28.899999619 49.549999237
2024-08-22 11: 735 2527 8 28.909999847 49.599998474
2024-08-22 11: 730 2506 8 28.909999847 49.590000153
2024-08-22 11: 741 2525 7 28.920000076 49.509998322
2024-08-22 12: 732 2521 8 28.930000305 49.439998627
2024-08-22 12: 742 2512 8 28.930000305 49.36000061
2024-08-22 12: 728 2532 8 28.940000534 49.340000153
2024-08-22 12: 725 2512 8 28.940000534 49.38999939
2024-08-22 12: 718 2516 8 28.950000763 49.430000305
2024-08-22 12: 622 2527 9 28.930000305 50.549999237
2024-08-22 12: 652 2515 5 28.920000076 50.470001221
2024-08-22 12: 662 2531 5 28.909999847 50.159999847
2024-08-22 12: 651 2509 5 28.909999847 50.200000763
2024-08-22 12: 655 2528 9 28.899999619 50.159999847
2024-08-22 12: 617 2527 9 28.899999619 50.069999695
2024-08-22 12: 637 2526 9 28.899999619 50.180000305
2024-08-22 12: 635 2523 9 28.899999619 50.229999542
2024-08-22 12: 638 2527 8 28.899999619 50.119998932
2024-08-22 12: 635 2514 8 28.899999619 50.049999237
2024-08-22 12: 657 2521 9 28.88999939 49.61000061
2024-08-22 12: 644 2516 8 28.88999939 49.599998474
2024-08-22 12: 634 2513 8 28.88999939 49.709999084
2024-08-22 12: 626 2526 7 28.88999939 49.790000916
2024-08-22 12: 635 2522 5 28.879999161 49.86000061
2024-08-22 12: 650 2509 9 28.870000839 49.720001221
2024-08-22 12: 615 2518 10 28.86000061 49.930000305
2024-08-22 12: 656 2523 10 28.86000061 49.770000458
2024-08-22 12: 657 2518 10 28.850000381 49.709999084
2024-08-22 12: 632 2512 10 28.840000153 49.900001526
2024-08-22 12: 640 2517 7 28.829999924 50.189998627
2024-08-22 12: 616 2528 5 28.809999466 50.25
2024-08-22 12: 631 2525 7 28.799999237 50.169998169
2024-08-23 11: 744 2513 8 26.86000061 59.319999695
2024-08-23 11: 773 2513 8 26.879999161 58.799999237
2024-09-10 14: 1512 2512 105 26.88999939 55.159999847